createdAt,value
2017-06-20T00:00:42.396Z,1011.15
2017-06-20T00:01:51.356Z,1011.15
2017-06-20T00:03:00.326Z,1011.18
2017-06-20T00:04:09.595Z,1011.18
2017-06-20T00:05:18.555Z,1011.19
2017-06-20T00:06:28.166Z,1011.16
2017-06-20T00:07:38.417Z,1011.15
2017-06-20T00:08:48.506Z,1011.15
2017-06-20T00:09:57.877Z,1011.13
2017-06-20T00:11:06.839Z,1011.11
2017-06-20T00:12:15.810Z,1011.11
2017-06-20T00:13:25.778Z,1011.11
2017-06-20T00:14:34.741Z,1011.15
2017-06-20T00:15:44.209Z,1011.12
2017-06-20T00:16:53.601Z,1011.11
2017-06-20T00:18:02.566Z,1011.1
2017-06-20T00:19:12.051Z,1011.07
2017-06-20T00:20:21.011Z,1011.08
2017-06-20T00:21:30.560Z,1011.03
2017-06-20T00:22:39.661Z,1011.03
2017-06-20T00:23:49.276Z,1011.01
2017-06-20T00:24:58.504Z,1011.02
2017-06-20T00:26:07.561Z,1011.06
2017-06-20T00:27:16.927Z,1011.07
2017-06-20T00:28:25.980Z,1011.06
2017-06-20T00:29:35.620Z,1011.08
2017-06-20T00:30:46.483Z,1011.09
2017-06-20T00:31:56.939Z,1011.02
2017-06-20T00:33:06.150Z,1011.01
2017-06-20T00:34:15.308Z,1010.99
2017-06-20T00:35:24.387Z,1010.97
2017-06-20T00:36:34.214Z,1010.97
2017-06-20T00:37:43.215Z,1010.94
2017-06-20T00:38:52.576Z,1010.94
2017-06-20T00:40:02.823Z,1010.91
2017-06-20T00:41:12.057Z,1010.91
2017-06-20T00:42:21.341Z,1010.94
2017-06-20T00:43:30.313Z,1010.92
2017-06-20T00:44:39.572Z,1010.93
2017-06-20T00:45:48.541Z,1010.93
2017-06-20T00:46:57.529Z,1010.91
2017-06-20T00:48:06.523Z,1010.94
2017-06-20T00:49:15.483Z,1010.93
2017-06-20T00:50:24.697Z,1010.92
2017-06-20T00:51:33.672Z,1010.9
2017-06-20T00:52:42.627Z,1010.96
2017-06-20T00:53:51.586Z,1010.91
2017-06-20T00:55:00.546Z,1010.87
2017-06-20T00:56:09.810Z,1010.88
2017-06-20T00:57:18.770Z,1010.85
2017-06-20T00:58:27.728Z,1010.83
2017-06-20T00:59:36.690Z,1010.85
2017-06-20T01:00:45.655Z,1010.81
2017-06-20T01:01:54.872Z,1010.79
2017-06-20T01:03:03.834Z,1010.81
2017-06-20T01:04:12.885Z,1010.78
2017-06-20T01:05:21.846Z,1010.78
2017-06-20T01:06:30.809Z,1010.73
2017-06-20T01:07:40.070Z,1010.73
2017-06-20T01:08:49.118Z,1010.73
2017-06-20T01:09:58.163Z,1010.71
2017-06-20T01:11:07.126Z,1010.76
2017-06-20T01:12:16.085Z,1010.77
2017-06-20T01:13:25.296Z,1010.73
2017-06-20T01:14:34.257Z,1010.73
2017-06-20T01:15:43.307Z,1010.7
2017-06-20T01:16:52.266Z,1010.74
2017-06-20T01:18:01.227Z,1010.74
2017-06-20T01:19:10.440Z,1010.72
2017-06-20T01:20:19.402Z,1010.72
2017-06-20T01:21:28.363Z,1010.72
2017-06-20T01:22:37.327Z,1010.71
2017-06-20T01:23:46.331Z,1010.7
2017-06-20T01:24:55.589Z,1010.74
2017-06-20T01:26:04.548Z,1010.7
2017-06-20T01:27:13.508Z,1010.7
2017-06-20T01:28:22.469Z,1010.69
2017-06-20T01:29:31.427Z,1010.65
2017-06-20T01:30:40.640Z,1010.7
2017-06-20T01:31:49.604Z,1010.65
2017-06-20T01:32:58.567Z,1010.63
2017-06-20T01:34:07.525Z,1010.68
2017-06-20T01:35:16.480Z,1010.67
2017-06-20T01:36:25.692Z,1010.67
2017-06-20T01:37:34.685Z,1010.65
2017-06-20T01:38:43.646Z,1010.63
2017-06-20T01:39:52.607Z,1010.63
2017-06-20T01:41:01.569Z,1010.63
2017-06-20T01:42:11.167Z,1010.58
2017-06-20T01:43:20.125Z,1010.58
2017-06-20T01:44:29.085Z,1010.57
2017-06-20T01:45:38.043Z,1010.58
2017-06-20T01:46:47.001Z,1010.56
2017-06-20T01:47:56.267Z,1010.57
2017-06-20T01:49:05.230Z,1010.54
2017-06-20T01:50:14.194Z,1010.58
2017-06-20T01:51:23.247Z,1010.55
2017-06-20T01:52:32.207Z,1010.54
2017-06-20T01:53:41.464Z,1010.53
2017-06-20T01:54:50.423Z,1010.51
2017-06-20T01:55:59.387Z,1010.49
2017-06-20T01:57:08.358Z,1010.5
2017-06-20T01:58:17.318Z,1010.47
2017-06-20T01:59:26.849Z,1010.43
2017-06-20T02:00:36.134Z,1010.41
2017-06-20T02:01:45.182Z,1010.4
2017-06-20T02:02:54.142Z,1010.37
2017-06-20T02:04:03.098Z,1010.35
2017-06-20T02:05:12.446Z,1010.35
2017-06-20T02:06:21.728Z,1010.38
2017-06-20T02:07:30.689Z,1010.37
2017-06-20T02:08:39.648Z,1010.36
2017-06-20T02:09:48.605Z,1010.35
2017-06-20T02:10:57.873Z,1010.35
2017-06-20T02:12:07.162Z,1010.35
2017-06-20T02:13:16.125Z,1010.33
2017-06-20T02:14:25.087Z,1010.34
2017-06-20T02:15:34.049Z,1010.36
2017-06-20T02:16:43.310Z,1010.32
2017-06-20T02:17:52.272Z,1010.37
2017-06-20T02:19:01.233Z,1010.34
2017-06-20T02:20:10.194Z,1010.36
2017-06-20T02:21:19.154Z,1010.34
2017-06-20T02:22:28.361Z,1010.31
2017-06-20T02:23:37.320Z,1010.3
2017-06-20T02:24:46.284Z,1010.3
2017-06-20T02:25:55.251Z,1010.3
2017-06-20T02:27:04.216Z,1010.3
2017-06-20T02:28:13.428Z,1010.25
2017-06-20T02:29:22.384Z,1010.29
2017-06-20T02:30:31.347Z,1010.28
2017-06-20T02:31:40.315Z,1010.27
2017-06-20T02:32:49.281Z,1010.25
2017-06-20T02:33:58.489Z,1010.26
2017-06-20T02:35:07.448Z,1010.25
2017-06-20T02:36:16.412Z,1010.25
2017-06-20T02:37:25.375Z,1010.19
2017-06-20T02:38:34.334Z,1010.23
2017-06-20T02:39:43.597Z,1010.2
2017-06-20T02:40:52.562Z,1010.22
2017-06-20T02:42:01.528Z,1010.22
2017-06-20T02:43:10.496Z,1010.24
2017-06-20T02:44:19.465Z,1010.22
2017-06-20T02:45:28.722Z,1010.24
2017-06-20T02:46:37.680Z,1010.2
2017-06-20T02:47:46.644Z,1010.19
2017-06-20T02:48:55.932Z,1010.22
2017-06-20T02:50:05.220Z,1010.19
2017-06-20T02:51:14.808Z,1010.18
2017-06-20T02:52:23.767Z,1010.18
2017-06-20T02:53:32.733Z,1010.21
2017-06-20T02:54:41.693Z,1010.21
2017-06-20T02:55:50.652Z,1010.24
2017-06-20T02:56:59.867Z,1010.23
2017-06-20T02:58:08.829Z,1010.25
2017-06-20T02:59:17.789Z,1010.24
2017-06-20T03:00:26.750Z,1010.23
2017-06-20T03:01:35.714Z,1010.22
2017-06-20T03:02:44.925Z,1010.27
2017-06-20T03:03:53.890Z,1010.28
2017-06-20T03:05:02.853Z,1010.26
2017-06-20T03:06:11.811Z,1010.28
2017-06-20T03:07:20.771Z,1010.27
2017-06-20T03:08:29.985Z,1010.28
2017-06-20T03:09:38.945Z,1010.32
2017-06-20T03:10:47.907Z,1010.28
2017-06-20T03:11:56.861Z,1010.27
2017-06-20T03:13:05.821Z,1010.3
2017-06-20T03:14:15.083Z,1010.28
2017-06-20T03:15:24.079Z,1010.28
2017-06-20T03:16:33.045Z,1010.26
2017-06-20T03:17:42.006Z,1010.26
2017-06-20T03:18:50.965Z,1010.25
2017-06-20T03:20:00.499Z,1010.29
2017-06-20T03:21:09.904Z,1010.25
2017-06-20T03:22:18.871Z,1010.28
2017-06-20T03:23:27.838Z,1010.29
2017-06-20T03:24:37.129Z,1010.24
2017-06-20T03:25:46.374Z,1010.3
2017-06-20T03:26:55.342Z,1010.31
2017-06-20T03:28:04.626Z,1010.28
2017-06-20T03:29:13.583Z,1010.3
2017-06-20T03:30:22.543Z,1010.29
2017-06-20T03:31:31.753Z,1010.3
2017-06-20T03:32:40.711Z,1010.32
2017-06-20T03:33:49.680Z,1010.32
2017-06-20T03:34:58.640Z,1010.29
2017-06-20T03:36:07.600Z,1010.3
2017-06-20T03:37:16.950Z,1010.27
2017-06-20T03:38:25.948Z,1010.27
2017-06-20T03:39:34.907Z,1010.25
2017-06-20T03:40:43.868Z,1010.26
2017-06-20T03:41:52.826Z,1010.31
2017-06-20T03:43:02.089Z,1010.24
2017-06-20T03:44:11.056Z,1010.25
2017-06-20T03:45:20.022Z,1010.24
2017-06-20T03:46:28.985Z,1010.25
2017-06-20T03:47:37.941Z,1010.22
2017-06-20T03:48:47.203Z,1010.22
2017-06-20T03:49:56.161Z,1010.21
2017-06-20T03:51:05.122Z,1010.18
2017-06-20T03:52:14.082Z,1010.21
2017-06-20T03:53:23.365Z,1010.19
2017-06-20T03:54:32.574Z,1010.19
2017-06-20T03:55:41.538Z,1010.18
2017-06-20T03:56:50.500Z,1010.19
2017-06-20T03:57:59.456Z,1010.19
2017-06-20T03:59:08.417Z,1010.18
2017-06-20T04:00:17.766Z,1010.13
2017-06-20T04:01:26.725Z,1010.19
2017-06-20T04:02:35.683Z,1010.17
2017-06-20T04:03:44.643Z,1010.18
2017-06-20T04:04:53.598Z,1010.14
2017-06-20T04:06:02.804Z,1010.17
2017-06-20T04:07:11.760Z,1010.14
2017-06-20T04:08:20.718Z,1010.15
2017-06-20T04:09:29.677Z,1010.2
2017-06-20T04:10:38.640Z,1010.2
2017-06-20T04:11:47.897Z,1010.17
2017-06-20T04:12:56.859Z,1010.18
2017-06-20T04:14:05.821Z,1010.16
2017-06-20T04:15:14.783Z,1010.15
2017-06-20T04:16:23.747Z,1010.17
2017-06-20T04:17:33.093Z,1010.14
2017-06-20T04:18:42.058Z,1010.18
2017-06-20T04:19:51.340Z,1010.18
2017-06-20T04:21:00.298Z,1010.16
2017-06-20T04:22:09.257Z,1010.19
2017-06-20T04:23:18.525Z,1010.18
2017-06-20T04:24:27.482Z,1010.2
2017-06-20T04:25:36.767Z,1010.19
2017-06-20T04:26:45.729Z,1010.16
2017-06-20T04:27:54.688Z,1010.18
2017-06-20T04:29:03.951Z,1010.16
2017-06-20T04:30:12.917Z,1010.17
2017-06-20T04:31:21.885Z,1010.17
2017-06-20T04:32:30.849Z,1010.19
2017-06-20T04:33:39.808Z,1010.22
2017-06-20T04:34:49.074Z,1010.19
2017-06-20T04:35:58.130Z,1010.22
2017-06-20T04:37:07.090Z,1010.2
2017-06-20T04:38:16.052Z,1010.18
2017-06-20T04:39:25.018Z,1010.22
2017-06-20T04:40:34.277Z,1010.22
2017-06-20T04:41:43.246Z,1010.21
2017-06-20T04:42:52.206Z,1010.23
2017-06-20T04:44:01.179Z,1010.22
2017-06-20T04:45:10.142Z,1010.22
2017-06-20T04:46:19.440Z,1010.22
2017-06-20T04:47:28.398Z,1010.23
2017-06-20T04:48:37.364Z,1010.25
2017-06-20T04:49:46.321Z,1010.22
2017-06-20T04:50:55.285Z,1010.27
2017-06-20T04:52:04.551Z,1010.24
2017-06-20T04:53:13.514Z,1010.23
2017-06-20T04:54:22.477Z,1010.23
2017-06-20T04:55:31.442Z,1010.26
2017-06-20T04:56:40.404Z,1010.25
2017-06-20T04:57:49.621Z,1010.25
2017-06-20T04:58:58.585Z,1010.25
2017-06-20T05:00:07.547Z,1010.25
2017-06-20T05:01:16.513Z,1010.22
2017-06-20T05:02:25.477Z,1010.23
2017-06-20T05:03:34.695Z,1010.21
2017-06-20T05:04:43.655Z,1010.21
2017-06-20T05:05:52.617Z,1010.23
2017-06-20T05:07:01.586Z,1010.24
2017-06-20T05:08:10.548Z,1010.25
2017-06-20T05:09:19.763Z,1010.22
2017-06-20T05:10:28.769Z,1010.21
2017-06-20T05:11:37.744Z,1010.25
2017-06-20T05:12:46.705Z,1010.24
2017-06-20T05:13:55.668Z,1010.26
2017-06-20T05:15:04.883Z,1010.27
2017-06-20T05:16:13.840Z,1010.26
2017-06-20T05:17:22.804Z,1010.28
2017-06-20T05:18:31.764Z,1010.31
2017-06-20T05:19:40.727Z,1010.29
2017-06-20T05:20:49.940Z,1010.3
2017-06-20T05:21:58.899Z,1010.3
2017-06-20T05:23:07.861Z,1010.35
2017-06-20T05:24:16.821Z,1010.35
2017-06-20T05:25:25.780Z,1010.32
2017-06-20T05:26:34.998Z,1010.31
2017-06-20T05:27:44.131Z,1010.32
2017-06-20T05:28:53.093Z,1010.32
2017-06-20T05:30:02.056Z,1010.29
2017-06-20T05:31:11.023Z,1010.36
2017-06-20T05:32:20.280Z,1010.29
2017-06-20T05:33:29.243Z,1010.28
2017-06-20T05:34:38.203Z,1010.28
2017-06-20T05:35:47.161Z,1010.27
2017-06-20T05:36:56.128Z,1010.32
2017-06-20T05:38:05.390Z,1010.28
2017-06-20T05:39:14.349Z,1010.23
2017-06-20T05:40:23.310Z,1010.26
2017-06-20T05:41:32.270Z,1010.29
2017-06-20T05:42:41.229Z,1010.27
2017-06-20T05:43:50.435Z,1010.3
2017-06-20T05:44:59.397Z,1010.32
2017-06-20T05:46:08.363Z,1010.31
2017-06-20T05:47:17.329Z,1010.3
2017-06-20T05:48:26.287Z,1010.26
2017-06-20T05:49:35.498Z,1010.26
2017-06-20T05:50:44.463Z,1010.29
2017-06-20T05:51:53.424Z,1010.31
2017-06-20T05:53:02.387Z,1010.27
2017-06-20T05:54:11.349Z,1010.32
2017-06-20T05:55:20.557Z,1010.33
2017-06-20T05:56:29.515Z,1010.35
2017-06-20T05:57:38.477Z,1010.31
2017-06-20T05:58:47.437Z,1010.34
2017-06-20T05:59:56.396Z,1010.32
2017-06-20T06:01:05.745Z,1010.35
2017-06-20T06:02:14.723Z,1010.33
2017-06-20T06:03:23.696Z,1010.36
2017-06-20T06:04:33.215Z,1010.36
2017-06-20T06:05:42.179Z,1010.37
2017-06-20T06:06:51.441Z,1010.36
2017-06-20T06:08:00.431Z,1010.38
2017-06-20T06:09:09.485Z,1010.37
2017-06-20T06:10:18.449Z,1010.41
2017-06-20T06:11:27.436Z,1010.4
2017-06-20T06:12:36.699Z,1010.4
2017-06-20T06:13:45.659Z,1010.42
2017-06-20T06:14:54.693Z,1010.39
2017-06-20T06:16:03.654Z,1010.42
2017-06-20T06:17:12.614Z,1010.44
2017-06-20T06:18:21.825Z,1010.42
2017-06-20T06:19:30.832Z,1010.46
2017-06-20T06:20:39.879Z,1010.46
2017-06-20T06:21:48.840Z,1010.51
2017-06-20T06:22:57.977Z,1010.46
2017-06-20T06:24:08.903Z,1010.47
2017-06-20T06:25:18.004Z,1010.49
2017-06-20T06:26:27.623Z,1010.45
2017-06-20T06:27:36.612Z,1010.47
2017-06-20T06:28:45.906Z,1010.49
2017-06-20T06:29:55.122Z,1010.45
2017-06-20T06:31:04.087Z,1010.43
2017-06-20T06:32:13.058Z,1010.42
2017-06-20T06:33:22.020Z,1010.49
2017-06-20T06:34:30.981Z,1010.45
2017-06-20T06:35:40.277Z,1010.43
2017-06-20T06:36:49.233Z,1010.42
2017-06-20T06:37:58.199Z,1010.39
2017-06-20T06:39:07.164Z,1010.42
2017-06-20T06:40:16.137Z,1010.41
2017-06-20T06:41:25.403Z,1010.41
2017-06-20T06:42:34.374Z,1010.45
2017-06-20T06:43:43.422Z,1010.45
2017-06-20T06:44:52.426Z,1010.46
2017-06-20T06:46:01.474Z,1010.43
2017-06-20T06:47:10.741Z,1010.44
2017-06-20T06:48:19.699Z,1010.43
2017-06-20T06:49:28.663Z,1010.48
2017-06-20T06:50:37.629Z,1010.46
2017-06-20T06:51:46.675Z,1010.49
2017-06-20T06:52:55.936Z,1010.46
2017-06-20T06:54:04.917Z,1010.48
2017-06-20T06:55:13.883Z,1010.47
2017-06-20T06:56:22.846Z,1010.5
2017-06-20T06:57:32.160Z,1010.5
2017-06-20T06:58:41.376Z,1010.48
2017-06-20T06:59:50.373Z,1010.52
2017-06-20T07:00:59.339Z,1010.51
2017-06-20T07:02:08.306Z,1010.54
2017-06-20T07:03:17.592Z,1010.51
2017-06-20T07:04:26.851Z,1010.52
2017-06-20T07:05:36.139Z,1010.51
2017-06-20T07:06:45.115Z,1010.5
2017-06-20T07:07:54.165Z,1010.53
2017-06-20T07:09:03.129Z,1010.48
2017-06-20T07:10:12.341Z,1010.49
2017-06-20T07:11:21.392Z,1010.51
2017-06-20T07:12:30.354Z,1010.5
2017-06-20T07:13:39.322Z,1010.51
2017-06-20T07:14:48.284Z,1010.48
2017-06-20T07:15:57.788Z,1010.52
2017-06-20T07:17:07.295Z,1010.53
2017-06-20T07:18:16.772Z,1010.57
2017-06-20T07:19:26.814Z,1010.6
2017-06-20T07:20:36.758Z,1010.59
2017-06-20T07:21:45.970Z,1010.63
2017-06-20T07:22:54.937Z,1010.61
2017-06-20T07:24:04.233Z,1010.62
2017-06-20T07:25:13.196Z,1010.58
2017-06-20T07:26:22.166Z,1010.64
2017-06-20T07:27:31.433Z,1010.67
2017-06-20T07:28:40.408Z,1010.6
2017-06-20T07:29:49.380Z,1010.65
2017-06-20T07:30:58.347Z,1010.63
2017-06-20T07:32:07.313Z,1010.62
2017-06-20T07:33:16.580Z,1010.61
2017-06-20T07:34:25.552Z,1010.64
2017-06-20T07:35:34.668Z,1010.66
2017-06-20T07:36:44.006Z,1010.67
2017-06-20T07:37:52.969Z,1010.66
2017-06-20T07:39:02.236Z,1010.67
2017-06-20T07:40:11.203Z,1010.64
2017-06-20T07:41:20.164Z,1010.67
2017-06-20T07:42:29.127Z,1010.69
2017-06-20T07:43:38.417Z,1010.64
2017-06-20T07:44:47.689Z,1010.65
2017-06-20T07:45:56.665Z,1010.61
2017-06-20T07:47:07.360Z,1010.67
2017-06-20T07:48:16.320Z,1010.64
2017-06-20T07:49:25.284Z,1010.66
2017-06-20T07:50:34.501Z,1010.7
2017-06-20T07:51:43.465Z,1010.62
2017-06-20T07:52:52.945Z,1010.66
2017-06-20T07:54:02.125Z,1010.66
2017-06-20T07:55:11.090Z,1010.65
2017-06-20T07:56:20.353Z,1010.64
2017-06-20T07:57:29.545Z,1010.68
2017-06-20T07:58:38.881Z,1010.64
2017-06-20T07:59:47.839Z,1010.62
2017-06-20T08:00:56.795Z,1010.64
2017-06-20T08:02:06.010Z,1010.67
2017-06-20T08:03:14.970Z,1010.67
2017-06-20T08:04:23.934Z,1010.65
2017-06-20T08:05:32.901Z,1010.63
2017-06-20T08:06:41.971Z,1010.58
2017-06-20T08:07:51.234Z,1010.58
2017-06-20T08:09:00.198Z,1010.62
2017-06-20T08:10:09.160Z,1010.63
2017-06-20T08:11:18.125Z,1010.59
2017-06-20T08:12:27.089Z,1010.68
2017-06-20T08:13:36.358Z,1010.62
2017-06-20T08:14:45.328Z,1010.61
2017-06-20T08:15:54.296Z,1010.61
2017-06-20T08:17:03.268Z,1010.63
2017-06-20T08:18:12.238Z,1010.62
2017-06-20T08:19:21.455Z,1010.62
2017-06-20T08:20:30.418Z,1010.63
2017-06-20T08:21:39.385Z,1010.65
2017-06-20T08:22:48.351Z,1010.63
2017-06-20T08:23:57.642Z,1010.62
2017-06-20T08:25:06.854Z,1010.57
2017-06-20T08:26:16.141Z,1010.6
2017-06-20T08:27:25.109Z,1010.56
2017-06-20T08:28:34.160Z,1010.56
2017-06-20T08:29:43.123Z,1010.55
2017-06-20T08:30:52.338Z,1010.57
2017-06-20T08:32:01.391Z,1010.56
2017-06-20T08:33:10.689Z,1010.53
2017-06-20T08:34:19.653Z,1010.51
2017-06-20T08:35:28.619Z,1010.51
2017-06-20T08:36:37.892Z,1010.51
2017-06-20T08:37:46.950Z,1010.55
2017-06-20T08:38:56.248Z,1010.56
2017-06-20T08:40:05.538Z,1010.55
2017-06-20T08:41:14.503Z,1010.56
2017-06-20T08:42:23.772Z,1010.57
2017-06-20T08:43:32.761Z,1010.55
2017-06-20T08:44:41.819Z,1010.54
2017-06-20T08:45:50.791Z,1010.53
2017-06-20T08:46:59.762Z,1010.54
2017-06-20T08:48:09.032Z,1010.56
2017-06-20T08:49:17.996Z,1010.53
2017-06-20T08:50:26.961Z,1010.55
2017-06-20T08:51:36.017Z,1010.52
2017-06-20T08:52:44.987Z,1010.53
2017-06-20T08:53:54.247Z,1010.54
2017-06-20T08:55:03.217Z,1010.58
2017-06-20T08:56:12.185Z,1010.56
2017-06-20T08:57:21.147Z,1010.58
2017-06-20T08:58:30.122Z,1010.61
2017-06-20T08:59:39.399Z,1010.62
2017-06-20T09:00:48.692Z,1010.59
2017-06-20T09:01:57.660Z,1010.65
2017-06-20T09:03:06.623Z,1010.6
2017-06-20T09:04:15.583Z,1010.63
2017-06-20T09:05:24.849Z,1010.68
2017-06-20T09:06:33.816Z,1010.66
2017-06-20T09:07:42.782Z,1010.64
2017-06-20T09:08:51.743Z,1010.62
2017-06-20T09:10:00.710Z,1010.63
2017-06-20T09:11:09.926Z,1010.65
2017-06-20T09:12:18.982Z,1010.68
2017-06-20T09:13:27.947Z,1010.7
2017-06-20T09:14:36.916Z,1010.67
2017-06-20T09:15:46.295Z,1010.67
2017-06-20T09:16:55.521Z,1010.66
2017-06-20T09:18:04.489Z,1010.59
2017-06-20T09:19:13.451Z,1010.61
2017-06-20T09:20:22.417Z,1010.59
2017-06-20T09:21:31.389Z,1010.64
2017-06-20T09:22:40.607Z,1010.65
2017-06-20T09:23:49.576Z,1010.63
2017-06-20T09:24:58.547Z,1010.61
2017-06-20T09:26:07.513Z,1010.63
2017-06-20T09:27:16.477Z,1010.65
2017-06-20T09:28:25.748Z,1010.68
2017-06-20T09:29:34.718Z,1010.63
2017-06-20T09:30:43.682Z,1010.66
2017-06-20T09:31:52.651Z,1010.63
2017-06-20T09:33:01.619Z,1010.64
2017-06-20T09:34:10.885Z,1010.63
2017-06-20T09:35:19.871Z,1010.61
2017-06-20T09:36:28.889Z,1010.61
2017-06-20T09:37:37.856Z,1010.6
2017-06-20T09:38:46.821Z,1010.62
2017-06-20T09:39:56.471Z,1010.61
2017-06-20T09:41:05.477Z,1010.62
2017-06-20T09:42:14.439Z,1010.56
2017-06-20T09:43:23.401Z,1010.63
2017-06-20T09:44:32.369Z,1010.58
2017-06-20T09:45:41.639Z,1010.62
2017-06-20T09:46:50.604Z,1010.57
2017-06-20T09:47:59.572Z,1010.59
2017-06-20T09:49:08.548Z,1010.58
2017-06-20T09:50:17.513Z,1010.59
2017-06-20T09:51:26.739Z,1010.59
2017-06-20T09:52:35.709Z,1010.59
2017-06-20T09:53:44.735Z,1010.67
2017-06-20T09:54:53.702Z,1010.62
2017-06-20T09:56:02.670Z,1010.62
2017-06-20T09:57:11.884Z,1010.65
2017-06-20T09:58:20.936Z,1010.6
2017-06-20T09:59:29.986Z,1010.62
2017-06-20T10:00:39.089Z,1010.57
2017-06-20T10:01:48.696Z,1010.55
2017-06-20T10:02:57.967Z,1010.58
2017-06-20T10:04:06.934Z,1010.55
2017-06-20T10:05:15.951Z,1010.61
2017-06-20T10:06:25.020Z,1010.62
2017-06-20T10:07:33.987Z,1010.69
2017-06-20T10:08:43.333Z,1010.57
2017-06-20T10:09:52.434Z,1010.54
2017-06-20T10:11:01.579Z,1010.57
2017-06-20T10:12:10.545Z,1010.62
2017-06-20T10:13:19.541Z,1010.61
2017-06-20T10:14:28.883Z,1010.65
2017-06-20T10:15:37.849Z,1010.61
2017-06-20T10:16:46.817Z,1010.6
2017-06-20T10:17:55.788Z,1010.61
2017-06-20T10:19:04.931Z,1010.59
2017-06-20T10:20:14.153Z,1010.61
2017-06-20T10:21:23.174Z,1010.58
2017-06-20T10:22:32.139Z,1010.64
2017-06-20T10:23:41.430Z,1010.61
2017-06-20T10:24:50.397Z,1010.68
2017-06-20T10:25:59.608Z,1010.65
2017-06-20T10:27:08.583Z,1010.54
2017-06-20T10:28:17.637Z,1010.78
2017-06-20T10:29:26.626Z,1010.72
2017-06-20T10:30:35.601Z,1010.73
2017-06-20T10:31:44.965Z,1010.73
2017-06-20T10:32:53.930Z,1010.72
2017-06-20T10:34:02.984Z,1010.71
2017-06-20T10:35:11.952Z,1010.72
2017-06-20T10:36:20.915Z,1010.68
2017-06-20T10:37:30.243Z,1010.74
2017-06-20T10:38:39.413Z,1010.76
2017-06-20T10:39:48.679Z,1010.69
2017-06-20T10:40:58.034Z,1010.68
2017-06-20T10:42:07.005Z,1010.7
2017-06-20T10:43:16.305Z,1010.68
2017-06-20T10:44:25.435Z,1010.68
2017-06-20T10:45:34.686Z,1010.65
2017-06-20T10:46:43.647Z,1010.71
2017-06-20T10:47:52.740Z,1010.71
2017-06-20T10:49:01.975Z,1010.68
2017-06-20T10:50:11.227Z,1010.6
2017-06-20T10:51:20.286Z,1010.62
2017-06-20T10:52:29.423Z,1010.59
2017-06-20T10:53:38.907Z,1010.64
2017-06-20T10:54:48.355Z,1010.68
2017-06-20T10:55:57.533Z,1010.71
2017-06-20T10:57:06.692Z,1010.67
2017-06-20T10:58:15.786Z,1010.61
2017-06-20T10:59:24.881Z,1010.55
2017-06-20T11:00:34.103Z,1010.67
2017-06-20T11:01:43.141Z,1010.64
2017-06-20T11:02:52.514Z,1010.67
2017-06-20T11:04:01.648Z,1010.7
2017-06-20T11:05:10.653Z,1010.68
2017-06-20T11:06:19.989Z,1010.69
2017-06-20T11:07:29.249Z,1010.64
2017-06-20T11:08:38.214Z,1010.58
2017-06-20T11:09:47.368Z,1010.5
2017-06-20T11:10:56.514Z,1010.58
2017-06-20T11:12:05.917Z,1010.69
2017-06-20T11:13:14.913Z,1010.6
2017-06-20T11:14:23.985Z,1010.61
2017-06-20T11:15:33.241Z,1010.55
2017-06-20T11:16:42.469Z,1010.61
2017-06-20T11:17:51.962Z,1010.59
2017-06-20T11:19:01.054Z,1010.61
2017-06-20T11:20:10.108Z,1010.49
2017-06-20T11:21:19.167Z,1010.44
2017-06-20T11:22:28.136Z,1010.54
2017-06-20T11:23:37.495Z,1010.51
2017-06-20T11:24:46.458Z,1010.52
2017-06-20T11:25:55.429Z,1010.59
2017-06-20T11:27:04.392Z,1010.6
2017-06-20T11:28:13.361Z,1010.56
2017-06-20T11:29:22.626Z,1010.58
2017-06-20T11:30:31.718Z,1010.6
2017-06-20T11:31:40.681Z,1010.58
2017-06-20T11:32:49.655Z,1010.55
2017-06-20T11:33:58.631Z,1010.58
2017-06-20T11:35:07.893Z,1010.56
2017-06-20T11:36:16.859Z,1010.61
2017-06-20T11:37:25.823Z,1010.59
2017-06-20T11:38:34.796Z,1010.6
2017-06-20T11:39:43.760Z,1010.54
2017-06-20T11:40:53.029Z,1010.55
2017-06-20T11:42:01.992Z,1010.5
2017-06-20T11:43:10.960Z,1010.53
2017-06-20T11:44:19.931Z,1010.53
2017-06-20T11:45:28.972Z,1010.54
2017-06-20T11:46:38.246Z,1010.47
2017-06-20T11:47:47.312Z,1010.5
2017-06-20T11:48:56.348Z,1010.43
2017-06-20T11:50:05.514Z,1010.4
2017-06-20T11:51:14.542Z,1010.45
2017-06-20T11:52:23.952Z,1010.47
2017-06-20T11:53:32.999Z,1010.53
2017-06-20T11:54:42.169Z,1010.59
2017-06-20T11:55:51.282Z,1010.47
2017-06-20T11:57:00.344Z,1010.56
2017-06-20T11:58:09.683Z,1010.52
2017-06-20T11:59:18.781Z,1010.56
2017-06-20T12:00:28.099Z,1010.59
2017-06-20T12:01:37.157Z,1010.56
2017-06-20T12:02:46.477Z,1010.58
2017-06-20T12:03:55.737Z,1010.51
2017-06-20T12:05:04.811Z,1010.53
2017-06-20T12:06:13.840Z,1010.56
2017-06-20T12:07:22.868Z,1010.51
2017-06-20T12:08:31.875Z,1010.48
2017-06-20T12:09:41.314Z,1010.53
2017-06-20T12:10:50.341Z,1010.62
2017-06-20T12:11:59.308Z,1010.56
2017-06-20T12:13:08.323Z,1010.54
2017-06-20T12:14:17.321Z,1010.52
2017-06-20T12:15:26.821Z,1010.51
2017-06-20T12:16:35.984Z,1010.5
2017-06-20T12:17:45.044Z,1010.6
2017-06-20T12:18:54.146Z,1010.51
2017-06-20T12:20:03.116Z,1010.49
2017-06-20T12:21:12.787Z,1010.44
2017-06-20T12:22:21.997Z,1010.54
2017-06-20T12:23:31.077Z,1010.56
2017-06-20T12:24:40.137Z,1010.54
2017-06-20T12:25:49.142Z,1010.57
2017-06-20T12:26:58.550Z,1010.5
2017-06-20T12:28:07.524Z,1010.5
2017-06-20T12:29:16.670Z,1010.5
2017-06-20T12:30:26.293Z,1010.5
2017-06-20T12:31:35.376Z,1010.51
2017-06-20T12:32:44.904Z,1010.56
2017-06-20T12:33:54.408Z,1010.55
2017-06-20T12:35:03.549Z,1010.52
2017-06-20T12:36:12.706Z,1010.49
2017-06-20T12:37:21.680Z,1010.52
2017-06-20T12:38:31.020Z,1010.56
2017-06-20T12:39:40.534Z,1010.52
2017-06-20T12:40:50.076Z,1010.52
2017-06-20T12:41:59.230Z,1010.54
2017-06-20T12:43:08.332Z,1010.53
2017-06-20T12:44:17.814Z,1010.49
2017-06-20T12:45:26.782Z,1010.49
2017-06-20T12:46:36.432Z,1010.5
2017-06-20T12:47:45.683Z,1010.43
2017-06-20T12:48:54.768Z,1010.5
2017-06-20T12:50:04.152Z,1010.54
2017-06-20T12:51:13.201Z,1010.55
2017-06-20T12:52:22.167Z,1010.56
2017-06-20T12:53:31.169Z,1010.53
2017-06-20T12:54:41.230Z,1010.49
2017-06-20T12:55:50.531Z,1010.47
2017-06-20T12:56:59.649Z,1010.49
2017-06-20T12:58:08.770Z,1010.47
2017-06-20T12:59:17.918Z,1010.48
2017-06-20T13:00:27.035Z,1010.4
2017-06-20T13:01:36.410Z,1010.47
2017-06-20T13:02:45.471Z,1010.48
2017-06-20T13:03:54.876Z,1010.5
2017-06-20T13:05:04.193Z,1010.52
2017-06-20T13:06:13.294Z,1010.52
2017-06-20T13:07:22.670Z,1010.47
2017-06-20T13:08:31.637Z,1010.53
2017-06-20T13:09:40.705Z,1010.52
2017-06-20T13:10:50.232Z,1010.46
2017-06-20T13:11:59.235Z,1010.49
2017-06-20T13:13:08.798Z,1010.49
2017-06-20T13:14:17.822Z,1010.57
2017-06-20T13:15:26.896Z,1010.57
2017-06-20T13:16:36.155Z,1010.54
2017-06-20T13:17:45.348Z,1010.5
2017-06-20T13:18:54.861Z,1010.52
2017-06-20T13:20:04.261Z,1010.47
2017-06-20T13:21:13.477Z,1010.56
2017-06-20T13:22:22.583Z,1010.57
2017-06-20T13:23:31.661Z,1010.58
2017-06-20T13:24:41.114Z,1010.53
2017-06-20T13:25:50.173Z,1010.59
2017-06-20T13:26:59.187Z,1010.61
2017-06-20T13:28:08.163Z,1010.59
2017-06-20T13:29:17.397Z,1010.64
2017-06-20T13:30:26.795Z,1010.64
2017-06-20T13:31:35.814Z,1010.6
2017-06-20T13:32:44.782Z,1010.61
2017-06-20T13:33:54.038Z,1010.63
2017-06-20T13:35:03.001Z,1010.68
2017-06-20T13:36:12.358Z,1010.71
2017-06-20T13:37:21.400Z,1010.69
2017-06-20T13:38:30.371Z,1010.62
2017-06-20T13:39:39.424Z,1010.71
2017-06-20T13:40:48.777Z,1010.68
2017-06-20T13:41:58.311Z,1010.7
2017-06-20T13:43:07.275Z,1010.77
2017-06-20T13:44:16.247Z,1010.75
2017-06-20T13:45:25.445Z,1010.73
2017-06-20T13:46:34.572Z,1010.78
2017-06-20T13:47:43.838Z,1010.78
2017-06-20T13:48:52.948Z,1010.76
2017-06-20T13:50:01.920Z,1010.84
2017-06-20T13:51:10.885Z,1010.78
2017-06-20T13:52:19.856Z,1010.73
2017-06-20T13:53:29.164Z,1010.76
2017-06-20T13:54:38.131Z,1010.77
2017-06-20T13:55:47.097Z,1010.83
2017-06-20T13:56:56.062Z,1010.77
2017-06-20T13:58:05.026Z,1010.8